sensor_id;sensor_type;location;lat;lon;timestamp;temperature;humidity
3186;DHT22;1604;53.700;10.252;2022-07-29T00:02:57;12.30;99.90
3186;DHT22;1604;53.700;10.252;2022-07-29T00:05:59;12.20;99.90
3186;DHT22;1604;53.700;10.252;2022-07-29T00:09:01;12.20;99.90
3186;DHT22;1604;53.700;10.252;2022-07-29T00:12:04;12.10;99.90
3186;DHT22;1604;53.700;10.252;2022-07-29T00:15:08;12.00;99.90
3186;DHT22;1604;53.700;10.252;2022-07-29T00:18:10;12.00;99.90
3186;DHT22;1604;53.700;10.252;2022-07-29T00:21:11;11.90;99.90
3186;DHT22;1604;53.700;10.252;2022-07-29T00:24:13;11.90;99.90
3186;DHT22;1604;53.700;10.252;2022-07-29T00:27:15;11.80;99.90
3186;DHT22;1604;53.700;10.252;2022-07-29T00:30:19;11.80;99.90
3186;DHT22;1604;53.700;10.252;2022-07-29T00:33:21;11.70;99.90
3186;DHT22;1604;53.700;10.252;2022-07-29T00:36:23;11.70;99.90
3186;DHT22;1604;53.700;10.252;2022-07-29T00:39:24;11.60;99.90
3186;DHT22;1604;53.700;10.252;2022-07-29T00:42:26;11.60;99.90
3186;DHT22;1604;53.700;10.252;2022-07-29T00:45:30;11.50;99.90
3186;DHT22;1604;53.700;10.252;2022-07-29T00:48:32;11.50;99.90
3186;DHT22;1604;53.700;10.252;2022-07-29T00:51:35;11.40;99.90
3186;DHT22;1604;53.700;10.252;2022-07-29T00:54:39;11.40;99.90
3186;DHT22;1604;53.700;10.252;2022-07-29T00:57:42;11.40;99.90
3186;DHT22;1604;53.700;10.252;2022-07-29T01:00:46;11.40;99.90
3186;DHT22;1604;53.700;10.252;2022-07-29T01:03:48;11.30;99.90
3186;DHT22;1604;53.700;10.252;2022-07-29T01:06:50;11.30;99.90
3186;DHT22;1604;53.700;10.252;2022-07-29T01:09:54;11.30;99.90
3186;DHT22;1604;53.700;10.252;2022-07-29T01:12:58;11.30;99.90
3186;DHT22;1604;53.700;10.252;2022-07-29T01:16:06;11.20;99.90
3186;DHT22;1604;53.700;10.252;2022-07-29T01:19:19;11.20;99.90
3186;DHT22;1604;53.700;10.252;2022-07-29T01:22:34;11.20;99.90
3186;DHT22;1604;53.700;10.252;2022-07-29T01:25:54;11.10;99.90
3186;DHT22;1604;53.700;10.252;2022-07-29T01:29:03;11.10;99.90
3186;DHT22;1604;53.700;10.252;2022-07-29T01:32:10;11.10;99.90
3186;DHT22;1604;53.700;10.252;2022-07-29T01:35:20;11.10;99.90
3186;DHT22;1604;53.700;10.252;2022-07-29T01:38:25;11.10;99.90
3186;DHT22;1604;53.700;10.252;2022-07-29T01:41:31;11.00;99.90
3186;DHT22;1604;53.700;10.252;2022-07-29T01:44:41;11.00;99.90
3186;DHT22;1604;53.700;10.252;2022-07-29T01:47:46;11.00;99.90
3186;DHT22;1604;53.700;10.252;2022-07-29T01:50:55;11.00;99.90
3186;DHT22;1604;53.700;10.252;2022-07-29T01:54:02;10.90;99.90
3186;DHT22;1604;53.700;10.252;2022-07-29T01:57:08;10.90;99.90
3186;DHT22;1604;53.700;10.252;2022-07-29T02:00:13;10.90;99.90
3186;DHT22;1604;53.700;10.252;2022-07-29T02:03:17;10.90;99.90
3186;DHT22;1604;53.700;10.252;2022-07-29T02:06:21;10.90;99.90
3186;DHT22;1604;53.700;10.252;2022-07-29T02:09:25;10.90;99.90
3186;DHT22;1604;53.700;10.252;2022-07-29T02:12:28;10.90;99.90
3186;DHT22;1604;53.700;10.252;2022-07-29T02:15:33;10.90;99.90
3186;DHT22;1604;53.700;10.252;2022-07-29T02:18:36;10.90;99.90
3186;DHT22;1604;53.700;10.252;2022-07-29T02:21:39;10.90;99.90
3186;DHT22;1604;53.700;10.252;2022-07-29T02:24:43;10.90;99.90
3186;DHT22;1604;53.700;10.252;2022-07-29T02:27:47;10.90;99.90
3186;DHT22;1604;53.700;10.252;2022-07-29T02:30:53;10.90;99.90
3186;DHT22;1604;53.700;10.252;2022-07-29T02:33:57;10.90;99.90
3186;DHT22;1604;53.700;10.252;2022-07-29T02:37:00;10.90;99.90
3186;DHT22;1604;53.700;10.252;2022-07-29T02:40:04;10.80;99.90
3186;DHT22;1604;53.700;10.252;2022-07-29T02:43:09;10.90;99.90
3186;DHT22;1604;53.700;10.252;2022-07-29T02:46:18;10.80;99.90
3186;DHT22;1604;53.700;10.252;2022-07-29T02:49:32;10.80;99.90
3186;DHT22;1604;53.700;10.252;2022-07-29T02:52:39;10.90;99.90
3186;DHT22;1604;53.700;10.252;2022-07-29T02:55:45;10.80;99.90
3186;DHT22;1604;53.700;10.252;2022-07-29T02:58:54;10.80;99.90
3186;DHT22;1604;53.700;10.252;2022-07-29T03:01:59;10.80;99.90
3186;DHT22;1604;53.700;10.252;2022-07-29T03:05:02;10.80;99.90
3186;DHT22;1604;53.700;10.252;2022-07-29T03:08:07;10.80;99.90
3186;DHT22;1604;53.700;10.252;2022-07-29T03:11:11;10.80;99.90
3186;DHT22;1604;53.700;10.252;2022-07-29T03:14:14;10.80;99.90
3186;DHT22;1604;53.700;10.252;2022-07-29T03:17:18;10.80;99.90
3186;DHT22;1604;53.700;10.252;2022-07-29T03:20:21;10.80;99.90
3186;DHT22;1604;53.700;10.252;2022-07-29T03:23:23;10.80;99.90
3186;DHT22;1604;53.700;10.252;2022-07-29T03:26:28;10.80;99.90
3186;DHT22;1604;53.700;10.252;2022-07-29T03:29:30;10.80;99.90
3186;DHT22;1604;53.700;10.252;2022-07-29T03:32:33;10.80;99.90
3186;DHT22;1604;53.700;10.252;2022-07-29T03:35:35;10.80;99.90
3186;DHT22;1604;53.700;10.252;2022-07-29T03:38:37;10.80;99.90
3186;DHT22;1604;53.700;10.252;2022-07-29T03:41:45;10.80;99.90
3186;DHT22;1604;53.700;10.252;2022-07-29T03:44:50;10.80;99.90
3186;DHT22;1604;53.700;10.252;2022-07-29T03:47:58;10.80;99.90
3186;DHT22;1604;53.700;10.252;2022-07-29T03:51:01;10.80;99.90
3186;DHT22;1604;53.700;10.252;2022-07-29T03:54:03;10.90;99.90
3186;DHT22;1604;53.700;10.252;2022-07-29T03:57:06;10.90;99.90
3186;DHT22;1604;53.700;10.252;2022-07-29T04:00:09;10.90;99.90
3186;DHT22;1604;53.700;10.252;2022-07-29T04:03:12;10.90;99.90
3186;DHT22;1604;53.700;10.252;2022-07-29T04:06:15;11.00;99.90
3186;DHT22;1604;53.700;10.252;2022-07-29T04:09:16;11.00;99.90
3186;DHT22;1604;53.700;10.252;2022-07-29T04:12:18;11.00;99.90
3186;DHT22;1604;53.700;10.252;2022-07-29T04:15:21;11.10;99.90
3186;DHT22;1604;53.700;10.252;2022-07-29T04:18:24;11.10;99.90
3186;DHT22;1604;53.700;10.252;2022-07-29T04:21:26;11.10;99.90
3186;DHT22;1604;53.700;10.252;2022-07-29T04:24:28;11.20;99.90
3186;DHT22;1604;53.700;10.252;2022-07-29T04:27:31;11.20;99.90
3186;DHT22;1604;53.700;10.252;2022-07-29T04:30:37;11.20;99.90
3186;DHT22;1604;53.700;10.252;2022-07-29T04:33:40;11.30;99.90
3186;DHT22;1604;53.700;10.252;2022-07-29T04:36:45;11.30;99.90
3186;DHT22;1604;53.700;10.252;2022-07-29T04:39:47;11.30;99.90
3186;DHT22;1604;53.700;10.252;2022-07-29T04:42:52;11.40;99.90
3186;DHT22;1604;53.700;10.252;2022-07-29T04:45:54;11.40;99.90
3186;DHT22;1604;53.700;10.252;2022-07-29T04:48:57;11.50;99.90
3186;DHT22;1604;53.700;10.252;2022-07-29T04:51:59;11.50;99.90
3186;DHT22;1604;53.700;10.252;2022-07-29T04:55:01;11.60;99.90
3186;DHT22;1604;53.700;10.252;2022-07-29T04:58:03;11.60;99.90
3186;DHT22;1604;53.700;10.252;2022-07-29T05:01:04;11.70;99.90
3186;DHT22;1604;53.700;10.252;2022-07-29T05:04:08;11.70;99.90
3186;DHT22;1604;53.700;10.252;2022-07-29T05:07:10;11.80;99.90
3186;DHT22;1604;53.700;10.252;2022-07-29T05:10:11;11.90;99.90
3186;DHT22;1604;53.700;10.252;2022-07-29T05:13:13;11.90;99.90
3186;DHT22;1604;53.700;10.252;2022-07-29T05:16:15;12.00;99.90
3186;DHT22;1604;53.700;10.252;2022-07-29T05:19:18;12.10;99.90
3186;DHT22;1604;53.700;10.252;2022-07-29T05:22:21;12.30;99.90
3186;DHT22;1604;53.700;10.252;2022-07-29T05:25:23;12.50;99.90
3186;DHT22;1604;53.700;10.252;2022-07-29T05:28:25;12.70;99.90
3186;DHT22;1604;53.700;10.252;2022-07-29T05:31:27;12.90;99.90
3186;DHT22;1604;53.700;10.252;2022-07-29T05:34:31;13.10;99.90
3186;DHT22;1604;53.700;10.252;2022-07-29T05:37:33;13.20;99.90
3186;DHT22;1604;53.700;10.252;2022-07-29T05:40:35;13.40;99.90
3186;DHT22;1604;53.700;10.252;2022-07-29T05:43:37;13.50;99.90
3186;DHT22;1604;53.700;10.252;2022-07-29T05:46:39;13.60;99.90
3186;DHT22;1604;53.700;10.252;2022-07-29T05:49:42;13.80;99.90
3186;DHT22;1604;53.700;10.252;2022-07-29T05:52:44;14.00;99.90
3186;DHT22;1604;53.700;10.252;2022-07-29T05:55:46;14.20;99.90
3186;DHT22;1604;53.700;10.252;2022-07-29T05:58:48;14.40;99.90
3186;DHT22;1604;53.700;10.252;2022-07-29T06:01:49;14.60;99.90
3186;DHT22;1604;53.700;10.252;2022-07-29T06:04:53;14.80;99.70
3186;DHT22;1604;53.700;10.252;2022-07-29T06:07:55;15.10;99.50
3186;DHT22;1604;53.700;10.252;2022-07-29T06:10:57;15.30;99.40
3186;DHT22;1604;53.700;10.252;2022-07-29T06:13:59;15.50;98.90
3186;DHT22;1604;53.700;10.252;2022-07-29T06:17:01;15.70;98.40
3186;DHT22;1604;53.700;10.252;2022-07-29T06:20:05;15.80;98.00
3186;DHT22;1604;53.700;10.252;2022-07-29T06:23:07;15.90;98.00
3186;DHT22;1604;53.700;10.252;2022-07-29T06:26:10;16.10;97.30
3186;DHT22;1604;53.700;10.252;2022-07-29T06:29:12;16.40;97.20
3186;DHT22;1604;53.700;10.252;2022-07-29T06:32:16;16.70;96.20
3186;DHT22;1604;53.700;10.252;2022-07-29T06:35:21;17.00;96.00
3186;DHT22;1604;53.700;10.252;2022-07-29T06:38:23;17.30;94.50
3186;DHT22;1604;53.700;10.252;2022-07-29T06:41:25;17.60;93.70
3186;DHT22;1604;53.700;10.252;2022-07-29T06:44:27;17.90;93.30
3186;DHT22;1604;53.700;10.252;2022-07-29T06:47:30;18.20;91.50
3186;DHT22;1604;53.700;10.252;2022-07-29T06:50:33;18.30;89.40
3186;DHT22;1604;53.700;10.252;2022-07-29T06:53:35;18.40;90.50
3186;DHT22;1604;53.700;10.252;2022-07-29T06:56:37;18.50;88.80
3186;DHT22;1604;53.700;10.252;2022-07-29T06:59:41;18.50;89.40
3186;DHT22;1604;53.700;10.252;2022-07-29T07:02:50;18.60;88.70
3186;DHT22;1604;53.700;10.252;2022-07-29T07:05:54;18.60;89.50
3186;DHT22;1604;53.700;10.252;2022-07-29T07:08:56;18.60;88.20
3186;DHT22;1604;53.700;10.252;2022-07-29T07:11:58;18.60;89.70
3186;DHT22;1604;53.700;10.252;2022-07-29T07:14:59;18.60;90.10
3186;DHT22;1604;53.700;10.252;2022-07-29T07:18:01;18.70;89.60
3186;DHT22;1604;53.700;10.252;2022-07-29T07:21:05;18.80;89.20
3186;DHT22;1604;53.700;10.252;2022-07-29T07:24:07;19.00;87.40
3186;DHT22;1604;53.700;10.252;2022-07-29T07:27:09;19.20;88.50
3186;DHT22;1604;53.700;10.252;2022-07-29T07:30:11;19.40;87.10
3186;DHT22;1604;53.700;10.252;2022-07-29T07:33:13;19.50;85.00
3186;DHT22;1604;53.700;10.252;2022-07-29T07:36:17;19.50;84.90
3186;DHT22;1604;53.700;10.252;2022-07-29T07:39:18;19.60;85.10
3186;DHT22;1604;53.700;10.252;2022-07-29T07:42:20;19.60;85.30
3186;DHT22;1604;53.700;10.252;2022-07-29T07:45:22;19.60;85.60
3186;DHT22;1604;53.700;10.252;2022-07-29T07:48:25;19.70;85.60
3186;DHT22;1604;53.700;10.252;2022-07-29T07:51:28;19.70;85.60
3186;DHT22;1604;53.700;10.252;2022-07-29T07:54:30;19.80;85.50
3186;DHT22;1604;53.700;10.252;2022-07-29T07:57:32;19.90;85.00
3186;DHT22;1604;53.700;10.252;2022-07-29T08:00:34;19.90;85.40
3186;DHT22;1604;53.700;10.252;2022-07-29T08:03:36;20.00;85.60
3186;DHT22;1604;53.700;10.252;2022-07-29T08:06:39;20.10;84.90
3186;DHT22;1604;53.700;10.252;2022-07-29T08:09:41;20.30;84.10
3186;DHT22;1604;53.700;10.252;2022-07-29T08:12:43;20.50;83.40
3186;DHT22;1604;53.700;10.252;2022-07-29T08:15:45;20.70;83.10
3186;DHT22;1604;53.700;10.252;2022-07-29T08:18:47;20.80;81.20
3186;DHT22;1604;53.700;10.252;2022-07-29T08:21:51;20.80;80.80
3186;DHT22;1604;53.700;10.252;2022-07-29T08:24:53;20.90;80.00
3186;DHT22;1604;53.700;10.252;2022-07-29T08:27:56;21.00;80.30
3186;DHT22;1604;53.700;10.252;2022-07-29T08:30:58;21.20;79.60
3186;DHT22;1604;53.700;10.252;2022-07-29T08:34:00;21.20;78.30
3186;DHT22;1604;53.700;10.252;2022-07-29T08:37:04;21.30;79.00
3186;DHT22;1604;53.700;10.252;2022-07-29T08:40:07;21.20;79.20
3186;DHT22;1604;53.700;10.252;2022-07-29T08:43:15;21.30;79.90
3186;DHT22;1604;53.700;10.252;2022-07-29T08:46:18;21.40;78.90
3186;DHT22;1604;53.700;10.252;2022-07-29T08:49:20;21.50;78.10
3186;DHT22;1604;53.700;10.252;2022-07-29T08:52:25;21.50;77.50
3186;DHT22;1604;53.700;10.252;2022-07-29T08:55:27;21.60;78.50
3186;DHT22;1604;53.700;10.252;2022-07-29T08:58:32;21.70;77.40
3186;DHT22;1604;53.700;10.252;2022-07-29T09:01:37;22.10;78.00
3186;DHT22;1604;53.700;10.252;2022-07-29T09:04:39;22.40;76.10
3186;DHT22;1604;53.700;10.252;2022-07-29T09:07:43;22.80;75.20
3186;DHT22;1604;53.700;10.252;2022-07-29T09:10:48;23.30;73.00
3186;DHT22;1604;53.700;10.252;2022-07-29T09:13:51;23.80;70.40
3186;DHT22;1604;53.700;10.252;2022-07-29T09:16:55;24.10;67.60
3186;DHT22;1604;53.700;10.252;2022-07-29T09:20:09;24.50;65.00
3186;DHT22;1604;53.700;10.252;2022-07-29T09:23:13;24.80;65.10
3186;DHT22;1604;53.700;10.252;2022-07-29T09:26:15;25.10;64.70
3186;DHT22;1604;53.700;10.252;2022-07-29T09:29:19;25.20;62.80
3186;DHT22;1604;53.700;10.252;2022-07-29T09:32:21;25.50;62.60
3186;DHT22;1604;53.700;10.252;2022-07-29T09:35:25;25.80;60.00
3186;DHT22;1604;53.700;10.252;2022-07-29T09:38:29;26.00;60.10
3186;DHT22;1604;53.700;10.252;2022-07-29T09:41:44;26.10;60.10
3186;DHT22;1604;53.700;10.252;2022-07-29T09:44:47;26.40;59.40
3186;DHT22;1604;53.700;10.252;2022-07-29T09:47:49;26.60;57.90
3186;DHT22;1604;53.700;10.252;2022-07-29T09:50:51;26.80;53.90
3186;DHT22;1604;53.700;10.252;2022-07-29T09:53:55;27.00;55.90
3186;DHT22;1604;53.700;10.252;2022-07-29T09:56:57;27.00;54.30
3186;DHT22;1604;53.700;10.252;2022-07-29T10:00:00;27.00;55.10
3186;DHT22;1604;53.700;10.252;2022-07-29T10:03:02;27.20;56.10
3186;DHT22;1604;53.700;10.252;2022-07-29T10:06:06;27.40;52.60
3186;DHT22;1604;53.700;10.252;2022-07-29T10:09:10;27.50;53.80
3186;DHT22;1604;53.700;10.252;2022-07-29T10:12:13;27.70;53.30
3186;DHT22;1604;53.700;10.252;2022-07-29T10:15:15;27.70;54.10
3186;DHT22;1604;53.700;10.252;2022-07-29T10:18:17;27.60;53.70
3186;DHT22;1604;53.700;10.252;2022-07-29T10:21:20;27.70;53.50
3186;DHT22;1604;53.700;10.252;2022-07-29T10:24:25;27.70;53.30
3186;DHT22;1604;53.700;10.252;2022-07-29T10:27:27;27.80;53.20
3186;DHT22;1604;53.700;10.252;2022-07-29T10:30:29;27.70;53.00
3186;DHT22;1604;53.700;10.252;2022-07-29T10:33:44;27.60;53.30
3186;DHT22;1604;53.700;10.252;2022-07-29T10:36:54;27.50;53.40
3186;DHT22;1604;53.700;10.252;2022-07-29T10:40:09;27.40;52.50
3186;DHT22;1604;53.700;10.252;2022-07-29T10:43:28;27.20;54.10
3186;DHT22;1604;53.700;10.252;2022-07-29T10:46:35;27.20;53.40
3186;DHT22;1604;53.700;10.252;2022-07-29T10:49:37;27.10;52.60
3186;DHT22;1604;53.700;10.252;2022-07-29T10:53:03;26.90;52.80
3186;DHT22;1604;53.700;10.252;2022-07-29T10:56:23;26.90;52.20
3186;DHT22;1604;53.700;10.252;2022-07-29T10:59:25;26.70;52.80
3186;DHT22;1604;53.700;10.252;2022-07-29T11:02:45;26.70;51.50
3186;DHT22;1604;53.700;10.252;2022-07-29T11:05:53;26.90;52.90
3186;DHT22;1604;53.700;10.252;2022-07-29T11:09:16;27.10;53.10
3186;DHT22;1604;53.700;10.252;2022-07-29T11:12:47;27.40;50.60
3186;DHT22;1604;53.700;10.252;2022-07-29T11:15:53;27.50;50.50
3186;DHT22;1604;53.700;10.252;2022-07-29T11:19:20;27.70;51.00
3186;DHT22;1604;53.700;10.252;2022-07-29T11:22:32;27.80;51.00
3186;DHT22;1604;53.700;10.252;2022-07-29T11:25:35;28.20;49.80
3186;DHT22;1604;53.700;10.252;2022-07-29T11:28:48;28.20;49.10
3186;DHT22;1604;53.700;10.252;2022-07-29T11:31:52;28.10;49.80
3186;DHT22;1604;53.700;10.252;2022-07-29T11:35:13;28.10;49.00
3186;DHT22;1604;53.700;10.252;2022-07-29T11:38:25;27.80;50.40
3186;DHT22;1604;53.700;10.252;2022-07-29T11:41:28;27.60;49.50
3186;DHT22;1604;53.700;10.252;2022-07-29T11:44:54;27.50;50.00
3186;DHT22;1604;53.700;10.252;2022-07-29T11:48:00;27.30;50.40
3186;DHT22;1604;53.700;10.252;2022-07-29T11:51:09;27.30;50.30
3186;DHT22;1604;53.700;10.252;2022-07-29T11:54:13;27.60;50.90
3186;DHT22;1604;53.700;10.252;2022-07-29T11:57:17;27.60;50.10
3186;DHT22;1604;53.700;10.252;2022-07-29T12:00:26;27.70;50.30
3186;DHT22;1604;53.700;10.252;2022-07-29T12:03:28;27.50;51.20
3186;DHT22;1604;53.700;10.252;2022-07-29T12:06:31;27.50;50.50
3186;DHT22;1604;53.700;10.252;2022-07-29T12:09:33;27.60;49.80
3186;DHT22;1604;53.700;10.252;2022-07-29T12:12:35;27.50;53.70
3186;DHT22;1604;53.700;10.252;2022-07-29T12:15:39;27.50;55.80
3186;DHT22;1604;53.700;10.252;2022-07-29T12:18:41;27.50;56.80
3186;DHT22;1604;53.700;10.252;2022-07-29T12:21:44;27.60;56.40
3186;DHT22;1604;53.700;10.252;2022-07-29T12:24:46;27.60;56.30
3186;DHT22;1604;53.700;10.252;2022-07-29T12:28:00;27.60;57.40
3186;DHT22;1604;53.700;10.252;2022-07-29T12:31:16;27.40;57.20
3186;DHT22;1604;53.700;10.252;2022-07-29T12:34:19;27.20;58.50
3186;DHT22;1604;53.700;10.252;2022-07-29T12:37:21;27.10;59.20
3186;DHT22;1604;53.700;10.252;2022-07-29T12:40:23;26.90;60.70
3186;DHT22;1604;53.700;10.252;2022-07-29T12:43:25;26.80;60.40
3186;DHT22;1604;53.700;10.252;2022-07-29T12:46:28;26.80;60.20
3186;DHT22;1604;53.700;10.252;2022-07-29T12:49:30;26.60;60.50
3186;DHT22;1604;53.700;10.252;2022-07-29T12:52:34;26.60;60.80
3186;DHT22;1604;53.700;10.252;2022-07-29T12:55:43;26.50;61.70
3186;DHT22;1604;53.700;10.252;2022-07-29T12:58:45;26.60;62.40
3186;DHT22;1604;53.700;10.252;2022-07-29T13:01:51;26.80;61.50
3186;DHT22;1604;53.700;10.252;2022-07-29T13:04:56;27.10;61.00
3186;DHT22;1604;53.700;10.252;2022-07-29T13:08:10;27.40;60.80
3186;DHT22;1604;53.700;10.252;2022-07-29T13:11:27;27.40;59.80
3186;DHT22;1604;53.700;10.252;2022-07-29T13:14:31;27.60;60.00
3186;DHT22;1604;53.700;10.252;2022-07-29T13:17:40;27.70;59.00
3186;DHT22;1604;53.700;10.252;2022-07-29T13:20:43;27.70;58.30
3186;DHT22;1604;53.700;10.252;2022-07-29T13:23:44;27.80;58.80
3186;DHT22;1604;53.700;10.252;2022-07-29T13:26:46;27.80;59.00
3186;DHT22;1604;53.700;10.252;2022-07-29T13:29:48;27.90;58.90
3186;DHT22;1604;53.700;10.252;2022-07-29T13:32:54;27.90;58.10
3186;DHT22;1604;53.700;10.252;2022-07-29T13:35:56;27.70;58.50
3186;DHT22;1604;53.700;10.252;2022-07-29T13:38:58;27.60;58.70
3186;DHT22;1604;53.700;10.252;2022-07-29T13:42:01;27.60;58.70
3186;DHT22;1604;53.700;10.252;2022-07-29T13:45:04;27.30;58.80
3186;DHT22;1604;53.700;10.252;2022-07-29T13:48:08;26.90;60.10
3186;DHT22;1604;53.700;10.252;2022-07-29T13:51:11;26.60;60.40
3186;DHT22;1604;53.700;10.252;2022-07-29T13:54:13;26.40;61.00
3186;DHT22;1604;53.700;10.252;2022-07-29T13:57:15;26.20;61.90
3186;DHT22;1604;53.700;10.252;2022-07-29T14:00:17;26.10;61.70
3186;DHT22;1604;53.700;10.252;2022-07-29T14:03:21;26.00;62.90
3186;DHT22;1604;53.700;10.252;2022-07-29T14:06:25;26.10;63.00
3186;DHT22;1604;53.700;10.252;2022-07-29T14:09:27;26.20;63.20
3186;DHT22;1604;53.700;10.252;2022-07-29T14:12:29;26.30;63.50
3186;DHT22;1604;53.700;10.252;2022-07-29T14:15:31;26.40;62.90
3186;DHT22;1604;53.700;10.252;2022-07-29T14:18:34;26.40;63.20
3186;DHT22;1604;53.700;10.252;2022-07-29T14:21:37;26.40;63.30
3186;DHT22;1604;53.700;10.252;2022-07-29T14:24:39;26.40;63.50
3186;DHT22;1604;53.700;10.252;2022-07-29T14:27:41;26.40;62.40
3186;DHT22;1604;53.700;10.252;2022-07-29T14:30:43;26.30;63.10
3186;DHT22;1604;53.700;10.252;2022-07-29T14:33:47;26.30;63.50
3186;DHT22;1604;53.700;10.252;2022-07-29T14:36:48;26.40;63.50
3186;DHT22;1604;53.700;10.252;2022-07-29T14:39:50;26.30;64.20
3186;DHT22;1604;53.700;10.252;2022-07-29T14:42:52;26.30;63.80
3186;DHT22;1604;53.700;10.252;2022-07-29T14:45:54;26.20;63.40
3186;DHT22;1604;53.700;10.252;2022-07-29T14:48:57;26.20;64.00
3186;DHT22;1604;53.700;10.252;2022-07-29T14:51:59;26.20;63.30
3186;DHT22;1604;53.700;10.252;2022-07-29T14:55:02;26.10;63.30
3186;DHT22;1604;53.700;10.252;2022-07-29T14:58:04;26.00;64.00
3186;DHT22;1604;53.700;10.252;2022-07-29T15:01:06;25.90;64.50
3186;DHT22;1604;53.700;10.252;2022-07-29T15:04:09;25.80;65.10
3186;DHT22;1604;53.700;10.252;2022-07-29T15:07:11;25.80;65.70
3186;DHT22;1604;53.700;10.252;2022-07-29T15:10:13;25.80;65.40
3186;DHT22;1604;53.700;10.252;2022-07-29T15:13:15;25.80;66.30
3186;DHT22;1604;53.700;10.252;2022-07-29T15:16:17;25.80;65.50
3186;DHT22;1604;53.700;10.252;2022-07-29T15:19:20;25.70;65.70
3186;DHT22;1604;53.700;10.252;2022-07-29T15:22:22;25.60;66.20
3186;DHT22;1604;53.700;10.252;2022-07-29T15:25:24;25.50;66.60
3186;DHT22;1604;53.700;10.252;2022-07-29T15:28:26;25.40;67.20
3186;DHT22;1604;53.700;10.252;2022-07-29T15:31:28;25.30;68.10
3186;DHT22;1604;53.700;10.252;2022-07-29T15:34:31;25.30;67.90
3186;DHT22;1604;53.700;10.252;2022-07-29T15:37:33;25.20;68.40
3186;DHT22;1604;53.700;10.252;2022-07-29T15:40:37;25.20;69.30
3186;DHT22;1604;53.700;10.252;2022-07-29T15:43:43;25.00;69.70
3186;DHT22;1604;53.700;10.252;2022-07-29T15:46:45;25.00;69.60
3186;DHT22;1604;53.700;10.252;2022-07-29T15:50:08;24.90;69.40
3186;DHT22;1604;53.700;10.252;2022-07-29T15:53:15;24.80;71.40
3186;DHT22;1604;53.700;10.252;2022-07-29T15:56:17;24.70;71.10
3186;DHT22;1604;53.700;10.252;2022-07-29T15:59:19;24.50;72.00
3186;DHT22;1604;53.700;10.252;2022-07-29T16:02:21;24.40;72.90
3186;DHT22;1604;53.700;10.252;2022-07-29T16:05:24;24.30;73.60
3186;DHT22;1604;53.700;10.252;2022-07-29T16:08:30;24.30;74.50
3186;DHT22;1604;53.700;10.252;2022-07-29T16:11:34;24.20;74.80
3186;DHT22;1604;53.700;10.252;2022-07-29T16:14:35;24.00;75.60
3186;DHT22;1604;53.700;10.252;2022-07-29T16:17:38;24.00;74.90
3186;DHT22;1604;53.700;10.252;2022-07-29T16:20:41;23.90;75.20
3186;DHT22;1604;53.700;10.252;2022-07-29T16:23:43;23.80;75.20
3186;DHT22;1604;53.700;10.252;2022-07-29T16:26:45;23.80;74.50
3186;DHT22;1604;53.700;10.252;2022-07-29T16:29:46;23.80;75.30
3186;DHT22;1604;53.700;10.252;2022-07-29T16:32:49;23.70;75.70
3186;DHT22;1604;53.700;10.252;2022-07-29T16:35:53;23.50;76.20
3186;DHT22;1604;53.700;10.252;2022-07-29T16:38:55;23.40;77.00
3186;DHT22;1604;53.700;10.252;2022-07-29T16:41:58;23.40;75.90
3186;DHT22;1604;53.700;10.252;2022-07-29T16:45:00;23.20;76.10
3186;DHT22;1604;53.700;10.252;2022-07-29T16:48:02;23.20;76.90
3186;DHT22;1604;53.700;10.252;2022-07-29T16:51:06;23.10;77.90
3186;DHT22;1604;53.700;10.252;2022-07-29T16:54:07;23.00;78.40
3186;DHT22;1604;53.700;10.252;2022-07-29T16:57:10;23.00;78.10
3186;DHT22;1604;53.700;10.252;2022-07-29T17:00:13;22.90;78.60
3186;DHT22;1604;53.700;10.252;2022-07-29T17:03:17;22.90;79.10
3186;DHT22;1604;53.700;10.252;2022-07-29T17:06:21;22.90;79.40
3186;DHT22;1604;53.700;10.252;2022-07-29T17:09:25;22.90;79.00
3186;DHT22;1604;53.700;10.252;2022-07-29T17:12:27;22.90;79.30
3186;DHT22;1604;53.700;10.252;2022-07-29T17:15:29;22.90;79.80
3186;DHT22;1604;53.700;10.252;2022-07-29T17:18:31;22.80;79.70
3186;DHT22;1604;53.700;10.252;2022-07-29T17:21:34;22.70;80.00
3186;DHT22;1604;53.700;10.252;2022-07-29T17:24:36;22.60;80.70
3186;DHT22;1604;53.700;10.252;2022-07-29T17:27:39;22.50;81.20
3186;DHT22;1604;53.700;10.252;2022-07-29T17:30:41;22.40;81.70
3186;DHT22;1604;53.700;10.252;2022-07-29T17:33:43;22.30;81.70
3186;DHT22;1604;53.700;10.252;2022-07-29T17:36:47;22.20;82.30
3186;DHT22;1604;53.700;10.252;2022-07-29T17:39:48;22.10;83.30
3186;DHT22;1604;53.700;10.252;2022-07-29T17:42:50;21.90;84.00
3186;DHT22;1604;53.700;10.252;2022-07-29T17:45:52;21.90;84.70
3186;DHT22;1604;53.700;10.252;2022-07-29T17:48:55;21.80;85.20
3186;DHT22;1604;53.700;10.252;2022-07-29T17:51:58;21.70;85.90
3186;DHT22;1604;53.700;10.252;2022-07-29T17:55:00;21.70;86.10
3186;DHT22;1604;53.700;10.252;2022-07-29T17:58:02;21.60;86.50
3186;DHT22;1604;53.700;10.252;2022-07-29T18:01:05;21.50;87.10
3186;DHT22;1604;53.700;10.252;2022-07-29T18:04:07;21.40;87.50
3186;DHT22;1604;53.700;10.252;2022-07-29T18:07:10;21.30;88.00
3186;DHT22;1604;53.700;10.252;2022-07-29T18:10:12;21.30;88.50
3186;DHT22;1604;53.700;10.252;2022-07-29T18:13:14;21.20;88.90
3186;DHT22;1604;53.700;10.252;2022-07-29T18:16:17;21.10;89.40
3186;DHT22;1604;53.700;10.252;2022-07-29T18:19:19;21.10;89.90
3186;DHT22;1604;53.700;10.252;2022-07-29T18:22:22;21.00;90.50
3186;DHT22;1604;53.700;10.252;2022-07-29T18:25:24;20.90;91.00
3186;DHT22;1604;53.700;10.252;2022-07-29T18:28:26;20.90;91.70
3186;DHT22;1604;53.700;10.252;2022-07-29T18:31:28;20.80;91.90
3186;DHT22;1604;53.700;10.252;2022-07-29T18:34:30;20.80;92.20
3186;DHT22;1604;53.700;10.252;2022-07-29T18:37:33;20.80;92.50
3186;DHT22;1604;53.700;10.252;2022-07-29T18:40:36;20.70;92.70
3186;DHT22;1604;53.700;10.252;2022-07-29T18:43:39;20.60;93.00
3186;DHT22;1604;53.700;10.252;2022-07-29T18:46:41;20.50;93.30
3186;DHT22;1604;53.700;10.252;2022-07-29T18:49:43;20.50;93.50
3186;DHT22;1604;53.700;10.252;2022-07-29T18:52:46;20.40;93.70
3186;DHT22;1604;53.700;10.252;2022-07-29T18:55:48;20.40;94.00
3186;DHT22;1604;53.700;10.252;2022-07-29T18:58:50;20.30;94.20
3186;DHT22;1604;53.700;10.252;2022-07-29T19:01:51;20.20;94.40
3186;DHT22;1604;53.700;10.252;2022-07-29T19:04:53;20.20;94.80
3186;DHT22;1604;53.700;10.252;2022-07-29T19:08:00;20.10;94.90
3186;DHT22;1604;53.700;10.252;2022-07-29T19:11:02;20.00;95.20
3186;DHT22;1604;53.700;10.252;2022-07-29T19:14:05;20.00;95.40
3186;DHT22;1604;53.700;10.252;2022-07-29T19:17:07;19.90;95.70
3186;DHT22;1604;53.700;10.252;2022-07-29T19:20:10;19.80;96.00
3186;DHT22;1604;53.700;10.252;2022-07-29T19:23:13;19.80;96.20
3186;DHT22;1604;53.700;10.252;2022-07-29T19:26:15;19.70;96.50
3186;DHT22;1604;53.700;10.252;2022-07-29T19:29:17;19.60;96.50
3186;DHT22;1604;53.700;10.252;2022-07-29T19:32:18;19.60;96.90
3186;DHT22;1604;53.700;10.252;2022-07-29T19:35:22;19.50;96.90
3186;DHT22;1604;53.700;10.252;2022-07-29T19:38:31;19.50;97.10
3186;DHT22;1604;53.700;10.252;2022-07-29T19:41:33;19.40;97.30